sensor_id;sensor_type;location;lat;lon;timestamp;pressure;altitude;pressure_sealevel;temperature;humidity
70198;BME280;57582;-34.876;138.628;2023-04-20T00:01:33;102332;;;17.56;54.48
70198;BME280;57582;-34.876;138.628;2023-04-20T00:04:34;102340;;;17.62;53.58
70198;BME280;57582;-34.876;138.628;2023-04-20T00:07:33;102333;;;17.66;53.67
70198;BME280;57582;-34.876;138.628;2023-04-20T00:10:33;102336;;;17.39;54.46
70198;BME280;57582;-34.876;138.628;2023-04-20T00:13:34;102345;;;17.47;55.07
70198;BME280;57582;-34.876;138.628;2023-04-20T00:16:34;102335;;;17.61;54.56
70198;BME280;57582;-34.876;138.628;2023-04-20T00:19:33;102344;;;17.68;54.49
70198;BME280;57582;-34.876;138.628;2023-04-20T00:22:33;102334;;;17.80;53.94
70198;BME280;57582;-34.876;138.628;2023-04-20T00:25:33;102337;;;17.99;55.12
70198;BME280;57582;-34.876;138.628;2023-04-20T00:28:34;102327;;;18.24;54.60
70198;BME280;57582;-34.876;138.628;2023-04-20T00:31:33;102325;;;18.54;53.31
70198;BME280;57582;-34.876;138.628;2023-04-20T00:34:33;102321;;;18.48;52.58
70198;BME280;57582;-34.876;138.628;2023-04-20T00:37:33;102335;;;18.50;51.84
70198;BME280;57582;-34.876;138.628;2023-04-20T00:40:34;102338;;;18.40;51.45
70198;BME280;57582;-34.876;138.628;2023-04-20T00:43:33;102334;;;18.70;52.23
70198;BME280;57582;-34.876;138.628;2023-04-20T00:46:33;102332;;;18.92;51.62
70198;BME280;57582;-34.876;138.628;2023-04-20T00:49:33;102334;;;19.10;50.74
70198;BME280;57582;-34.876;138.628;2023-04-20T00:52:34;102336;;;19.22;49.81
70198;BME280;57582;-34.876;138.628;2023-04-20T00:55:33;102338;;;19.28;50.13
70198;BME280;57582;-34.876;138.628;2023-04-20T00:58:33;102338;;;19.20;49.45
70198;BME280;57582;-34.876;138.628;2023-04-20T01:01:33;102337;;;19.16;49.94
70198;BME280;57582;-34.876;138.628;2023-04-20T01:04:34;102342;;;19.32;49.87
70198;BME280;57582;-34.876;138.628;2023-04-20T01:07:33;102336;;;19.50;49.39
70198;BME280;57582;-34.876;138.628;2023-04-20T01:10:33;102339;;;19.38;49.60
70198;BME280;57582;-34.876;138.628;2023-04-20T01:13:33;102330;;;19.44;49.52
70198;BME280;57582;-34.876;138.628;2023-04-20T01:16:34;102340;;;19.45;50.01
70198;BME280;57582;-34.876;138.628;2023-04-20T01:19:33;102331;;;19.11;49.56
70198;BME280;57582;-34.876;138.628;2023-04-20T01:22:41;102336;;;18.97;50.05
70198;BME280;57582;-34.876;138.628;2023-04-20T01:25:33;102334;;;18.98;50.01
70198;BME280;57582;-34.876;138.628;2023-04-20T01:28:34;102339;;;19.12;50.64
70198;BME280;57582;-34.876;138.628;2023-04-20T01:31:33;102337;;;19.29;50.55
70198;BME280;57582;-34.876;138.628;2023-04-20T01:34:33;102336;;;19.42;50.33
70198;BME280;57582;-34.876;138.628;2023-04-20T01:37:34;102338;;;19.54;49.93
70198;BME280;57582;-34.876;138.628;2023-04-20T01:40:35;102337;;;19.71;49.58
70198;BME280;57582;-34.876;138.628;2023-04-20T01:43:34;102330;;;19.69;48.89
70198;BME280;57582;-34.876;138.628;2023-04-20T01:46:37;102337;;;19.63;49.56
70198;BME280;57582;-34.876;138.628;2023-04-20T01:49:33;102327;;;19.59;49.99
70198;BME280;57582;-34.876;138.628;2023-04-20T01:52:34;102322;;;19.77;47.86
70198;BME280;57582;-34.876;138.628;2023-04-20T01:55:33;102318;;;19.76;48.85
70198;BME280;57582;-34.876;138.628;2023-04-20T01:58:33;102317;;;19.80;48.09
70198;BME280;57582;-34.876;138.628;2023-04-20T02:01:34;102317;;;19.87;48.54
70198;BME280;57582;-34.876;138.628;2023-04-20T02:04:34;102318;;;19.81;48.06
70198;BME280;57582;-34.876;138.628;2023-04-20T02:07:33;102310;;;19.92;48.12
70198;BME280;57582;-34.876;138.628;2023-04-20T02:10:33;102313;;;19.94;47.73
70198;BME280;57582;-34.876;138.628;2023-04-20T02:13:33;102314;;;19.69;47.34
70198;BME280;57582;-34.876;138.628;2023-04-20T02:16:34;102310;;;19.63;48.25
70198;BME280;57582;-34.876;138.628;2023-04-20T02:19:33;102316;;;19.60;49.41
70198;BME280;57582;-34.876;138.628;2023-04-20T02:22:33;102312;;;19.55;48.91
70198;BME280;57582;-34.876;138.628;2023-04-20T02:25:34;102316;;;19.44;48.71
70198;BME280;57582;-34.876;138.628;2023-04-20T02:28:35;102313;;;19.55;48.35
70198;BME280;57582;-34.876;138.628;2023-04-20T02:31:33;102312;;;19.45;47.96
70198;BME280;57582;-34.876;138.628;2023-04-20T02:34:33;102302;;;19.57;48.88
70198;BME280;57582;-34.876;138.628;2023-04-20T02:37:34;102299;;;19.63;48.14
70198;BME280;57582;-34.876;138.628;2023-04-20T02:40:34;102307;;;19.55;48.44
70198;BME280;57582;-34.876;138.628;2023-04-20T02:43:34;102297;;;19.62;48.08
70198;BME280;57582;-34.876;138.628;2023-04-20T02:46:34;102288;;;19.60;48.51
70198;BME280;57582;-34.876;138.628;2023-04-20T02:49:34;102291;;;19.55;48.52
70198;BME280;57582;-34.876;138.628;2023-04-20T02:52:34;102287;;;19.32;48.67
70198;BME280;57582;-34.876;138.628;2023-04-20T02:55:34;102284;;;19.31;48.81
70198;BME280;57582;-34.876;138.628;2023-04-20T02:58:34;102281;;;19.12;48.71
70198;BME280;57582;-34.876;138.628;2023-04-20T03:01:34;102279;;;19.11;48.80
70198;BME280;57582;-34.876;138.628;2023-04-20T03:04:35;102273;;;19.25;49.43
70198;BME280;57582;-34.876;138.628;2023-04-20T03:07:34;102268;;;19.42;49.05
70198;BME280;57582;-34.876;138.628;2023-04-20T03:10:34;102268;;;19.40;49.26
70198;BME280;57582;-34.876;138.628;2023-04-20T03:13:34;102267;;;19.39;49.09
70198;BME280;57582;-34.876;138.628;2023-04-20T03:16:34;102264;;;19.42;49.21
70198;BME280;57582;-34.876;138.628;2023-04-20T03:19:34;102264;;;19.47;48.98
70198;BME280;57582;-34.876;138.628;2023-04-20T03:22:34;102259;;;19.38;49.06
70198;BME280;57582;-34.876;138.628;2023-04-20T03:25:34;102253;;;19.28;49.30
70198;BME280;57582;-34.876;138.628;2023-04-20T03:28:34;102252;;;19.28;49.75
70198;BME280;57582;-34.876;138.628;2023-04-20T03:31:34;102249;;;19.36;49.65
70198;BME280;57582;-34.876;138.628;2023-04-20T03:34:34;102244;;;19.35;49.56
70198;BME280;57582;-34.876;138.628;2023-04-20T03:37:35;102240;;;19.22;49.80
70198;BME280;57582;-34.876;138.628;2023-04-20T03:40:34;102233;;;19.27;50.10
70198;BME280;57582;-34.876;138.628;2023-04-20T03:43:34;102238;;;19.08;50.44
70198;BME280;57582;-34.876;138.628;2023-04-20T03:46:34;102235;;;19.09;50.87
70198;BME280;57582;-34.876;138.628;2023-04-20T03:49:34;102237;;;18.98;51.22
70198;BME280;57582;-34.876;138.628;2023-04-20T03:52:34;102232;;;18.88;51.47
70198;BME280;57582;-34.876;138.628;2023-04-20T03:55:34;102231;;;18.93;51.61
70198;BME280;57582;-34.876;138.628;2023-04-20T03:58:34;102239;;;18.85;51.70
70198;BME280;57582;-34.876;138.628;2023-04-20T04:01:35;102238;;;18.88;51.84
70198;BME280;57582;-34.876;138.628;2023-04-20T04:04:34;102231;;;18.92;52.25
70198;BME280;57582;-34.876;138.628;2023-04-20T04:07:34;102236;;;18.98;52.66
70198;BME280;57582;-34.876;138.628;2023-04-20T04:10:34;102236;;;19.00;52.97
70198;BME280;57582;-34.876;138.628;2023-04-20T04:13:34;102231;;;18.93;53.03
70198;BME280;57582;-34.876;138.628;2023-04-20T04:16:35;102223;;;18.89;53.06
70198;BME280;57582;-34.876;138.628;2023-04-20T04:19:34;102220;;;18.93;53.20
70198;BME280;57582;-34.876;138.628;2023-04-20T04:22:34;102222;;;18.94;53.64
70198;BME280;57582;-34.876;138.628;2023-04-20T04:25:36;102225;;;18.96;53.43
70198;BME280;57582;-34.876;138.628;2023-04-20T04:28:36;102214;;;18.98;53.62
70198;BME280;57582;-34.876;138.628;2023-04-20T04:31:34;102197;;;18.89;53.25
70198;BME280;57582;-34.876;138.628;2023-04-20T04:34:34;102210;;;18.97;53.67
70198;BME280;57582;-34.876;138.628;2023-04-20T04:37:34;102208;;;18.99;53.71
70198;BME280;57582;-34.876;138.628;2023-04-20T04:40:34;102209;;;19.00;53.70
70198;BME280;57582;-34.876;138.628;2023-04-20T04:43:34;102213;;;18.92;53.99
70198;BME280;57582;-34.876;138.628;2023-04-20T04:46:34;102216;;;18.91;53.87
70198;BME280;57582;-34.876;138.628;2023-04-20T04:49:34;102213;;;18.89;54.38
70198;BME280;57582;-34.876;138.628;2023-04-20T04:52:35;102221;;;18.81;54.51
70198;BME280;57582;-34.876;138.628;2023-04-20T04:55:34;102222;;;18.85;54.55
70198;BME280;57582;-34.876;138.628;2023-04-20T04:58:34;102219;;;18.80;55.06
70198;BME280;57582;-34.876;138.628;2023-04-20T05:01:34;102219;;;18.86;55.23
70198;BME280;57582;-34.876;138.628;2023-04-20T05:04:35;102223;;;18.90;54.96
70198;BME280;57582;-34.876;138.628;2023-04-20T05:07:34;102218;;;18.97;54.75
70198;BME280;57582;-34.876;138.628;2023-04-20T05:10:34;102216;;;18.89;55.14
70198;BME280;57582;-34.876;138.628;2023-04-20T05:13:34;102215;;;18.97;55.21
70198;BME280;57582;-34.876;138.628;2023-04-20T05:16:35;102219;;;19.02;55.51
70198;BME280;57582;-34.876;138.628;2023-04-20T05:19:34;102217;;;18.90;55.88
70198;BME280;57582;-34.876;138.628;2023-04-20T05:22:34;102220;;;18.89;55.78
70198;BME280;57582;-34.876;138.628;2023-04-20T05:25:34;102223;;;18.85;55.80
70198;BME280;57582;-34.876;138.628;2023-04-20T05:28:34;102224;;;18.91;55.79
70198;BME280;57582;-34.876;138.628;2023-04-20T05:31:34;102225;;;18.96;55.75
70198;BME280;57582;-34.876;138.628;2023-04-20T05:34:34;102215;;;18.87;55.72
70198;BME280;57582;-34.876;138.628;2023-04-20T05:37:34;102225;;;18.93;55.80
70198;BME280;57582;-34.876;138.628;2023-04-20T05:40:35;102221;;;18.87;56.41
70198;BME280;57582;-34.876;138.628;2023-04-20T05:43:34;102227;;;18.81;56.68
70198;BME280;57582;-34.876;138.628;2023-04-20T05:46:34;102227;;;18.91;56.39
70198;BME280;57582;-34.876;138.628;2023-04-20T05:49:34;102224;;;19.01;55.90
70198;BME280;57582;-34.876;138.628;2023-04-20T05:52:35;102227;;;19.07;55.62
70198;BME280;57582;-34.876;138.628;2023-04-20T05:55:34;102227;;;19.08;55.16
70198;BME280;57582;-34.876;138.628;2023-04-20T05:58:34;102223;;;19.12;54.97
70198;BME280;57582;-34.876;138.628;2023-04-20T06:01:34;102219;;;19.17;55.32
70198;BME280;57582;-34.876;138.628;2023-04-20T06:04:34;102219;;;19.22;55.29
70198;BME280;57582;-34.876;138.628;2023-04-20T06:07:34;102225;;;18.95;54.94
70198;BME280;57582;-34.876;138.628;2023-04-20T06:10:34;102220;;;18.93;55.38
70198;BME280;57582;-34.876;138.628;2023-04-20T06:13:34;102220;;;18.90;55.90
70198;BME280;57582;-34.876;138.628;2023-04-20T06:16:34;102222;;;18.99;55.52
70198;BME280;57582;-34.876;138.628;2023-04-20T06:19:34;102219;;;19.09;55.28
70198;BME280;57582;-34.876;138.628;2023-04-20T06:22:34;102223;;;19.18;55.55
70198;BME280;57582;-34.876;138.628;2023-04-20T06:25:35;102226;;;19.26;54.60
70198;BME280;57582;-34.876;138.628;2023-04-20T06:28:35;102225;;;19.35;54.68
70198;BME280;57582;-34.876;138.628;2023-04-20T06:31:34;102226;;;19.43;53.61
70198;BME280;57582;-34.876;138.628;2023-04-20T06:34:34;102226;;;19.43;53.77
70198;BME280;57582;-34.876;138.628;2023-04-20T06:37:34;102230;;;19.32;53.75
70198;BME280;57582;-34.876;138.628;2023-04-20T06:40:34;102226;;;19.39;53.35
70198;BME280;57582;-34.876;138.628;2023-04-20T06:43:34;102222;;;19.35;52.55
70198;BME280;57582;-34.876;138.628;2023-04-20T06:46:34;102229;;;19.40;52.17
70198;BME280;57582;-34.876;138.628;2023-04-20T06:49:34;102222;;;19.39;52.17
70198;BME280;57582;-34.876;138.628;2023-04-20T06:52:36;102222;;;19.27;52.05
70198;BME280;57582;-34.876;138.628;2023-04-20T06:55:34;102230;;;19.16;52.37
70198;BME280;57582;-34.876;138.628;2023-04-20T06:58:34;102234;;;19.20;52.14
70198;BME280;57582;-34.876;138.628;2023-04-20T07:01:34;102230;;;19.25;51.51
70198;BME280;57582;-34.876;138.628;2023-04-20T07:04:34;102235;;;19.33;51.50
70198;BME280;57582;-34.876;138.628;2023-04-20T07:07:34;102236;;;19.32;51.43
70198;BME280;57582;-34.876;138.628;2023-04-20T07:10:34;102236;;;19.39;51.17
70198;BME280;57582;-34.876;138.628;2023-04-20T07:13:34;102238;;;19.40;51.24
70198;BME280;57582;-34.876;138.628;2023-04-20T07:16:35;102240;;;19.38;50.90
70198;BME280;57582;-34.876;138.628;2023-04-20T07:19:34;102237;;;19.41;50.65
70198;BME280;57582;-34.876;138.628;2023-04-20T07:22:34;102234;;;19.47;50.36
70198;BME280;57582;-34.876;138.628;2023-04-20T07:25:34;102234;;;19.54;50.60
70198;BME280;57582;-34.876;138.628;2023-04-20T07:28:35;102236;;;19.58;50.39
70198;BME280;57582;-34.876;138.628;2023-04-20T07:31:34;102232;;;19.60;50.12
70198;BME280;57582;-34.876;138.628;2023-04-20T07:34:34;102239;;;19.57;50.10
70198;BME280;57582;-34.876;138.628;2023-04-20T07:37:34;102243;;;19.61;50.57
70198;BME280;57582;-34.876;138.628;2023-04-20T07:40:35;102240;;;19.63;50.38
70198;BME280;57582;-34.876;138.628;2023-04-20T07:43:34;102246;;;19.65;50.16
70198;BME280;57582;-34.876;138.628;2023-04-20T07:46:34;102250;;;19.68;50.15
70198;BME280;57582;-34.876;138.628;2023-04-20T07:49:35;102252;;;19.68;50.17
70198;BME280;57582;-34.876;138.628;2023-04-20T07:52:34;102259;;;19.60;51.39
70198;BME280;57582;-34.876;138.628;2023-04-20T07:55:34;102264;;;19.52;52.60
70198;BME280;57582;-34.876;138.628;2023-04-20T07:58:34;102279;;;19.38;53.69
70198;BME280;57582;-34.876;138.628;2023-04-20T08:01:34;102277;;;19.24;54.49
70198;BME280;57582;-34.876;138.628;2023-04-20T08:04:35;102276;;;19.22;54.69
70198;BME280;57582;-34.876;138.628;2023-04-20T08:07:34;102285;;;19.19;54.96
70198;BME280;57582;-34.876;138.628;2023-04-20T08:10:35;102286;;;19.17;55.69
70198;BME280;57582;-34.876;138.628;2023-04-20T08:13:34;102290;;;19.02;55.88
70198;BME280;57582;-34.876;138.628;2023-04-20T08:16:34;102292;;;18.94;56.12
70198;BME280;57582;-34.876;138.628;2023-04-20T08:19:34;102297;;;18.74;56.70
70198;BME280;57582;-34.876;138.628;2023-04-20T08:22:34;102295;;;18.71;56.85
70198;BME280;57582;-34.876;138.628;2023-04-20T08:25:34;102302;;;18.74;56.90
70198;BME280;57582;-34.876;138.628;2023-04-20T08:28:35;102308;;;18.76;56.81
70198;BME280;57582;-34.876;138.628;2023-04-20T08:31:34;102323;;;18.75;56.92
70198;BME280;57582;-34.876;138.628;2023-04-20T08:34:34;102319;;;18.80;56.83
70198;BME280;57582;-34.876;138.628;2023-04-20T08:37:34;102323;;;18.85;56.87
70198;BME280;57582;-34.876;138.628;2023-04-20T08:40:35;102317;;;18.89;56.84
70198;BME280;57582;-34.876;138.628;2023-04-20T08:43:34;102323;;;18.91;56.39
70198;BME280;57582;-34.876;138.628;2023-04-20T08:46:34;102321;;;18.95;56.17
70198;BME280;57582;-34.876;138.628;2023-04-20T08:49:34;102322;;;19.02;55.80
70198;BME280;57582;-34.876;138.628;2023-04-20T08:52:35;102323;;;19.08;55.44
70198;BME280;57582;-34.876;138.628;2023-04-20T08:55:34;102327;;;19.10;55.31
70198;BME280;57582;-34.876;138.628;2023-04-20T08:58:34;102332;;;19.18;55.05
70198;BME280;57582;-34.876;138.628;2023-04-20T09:01:35;102331;;;19.17;54.98
70198;BME280;57582;-34.876;138.628;2023-04-20T09:04:35;102333;;;19.11;55.02
70198;BME280;57582;-34.876;138.628;2023-04-20T09:07:34;102341;;;19.14;55.14
70198;BME280;57582;-34.876;138.628;2023-04-20T09:10:38;102337;;;19.18;55.18
70198;BME280;57582;-34.876;138.628;2023-04-20T09:13:34;102342;;;19.21;55.31
70198;BME280;57582;-34.876;138.628;2023-04-20T09:16:35;102346;;;19.20;55.50
70198;BME280;57582;-34.876;138.628;2023-04-20T09:19:34;102346;;;19.23;55.61
70198;BME280;57582;-34.876;138.628;2023-04-20T09:22:35;102354;;;19.26;55.95
70198;BME280;57582;-34.876;138.628;2023-04-20T09:25:34;102357;;;19.31;56.13
70198;BME280;57582;-34.876;138.628;2023-04-20T09:28:36;102356;;;19.32;56.53
70198;BME280;57582;-34.876;138.628;2023-04-20T09:31:35;102365;;;19.34;56.81
70198;BME280;57582;-34.876;138.628;2023-04-20T09:34:42;102360;;;19.38;56.73
70198;BME280;57582;-34.876;138.628;2023-04-20T09:37:34;102368;;;19.39;57.02
70198;BME280;57582;-34.876;138.628;2023-04-20T09:40:35;102363;;;19.36;57.07
70198;BME280;57582;-34.876;138.628;2023-04-20T09:43:34;102361;;;19.32;57.19
70198;BME280;57582;-34.876;138.628;2023-04-20T09:46:36;102370;;;19.37;57.09
70198;BME280;57582;-34.876;138.628;2023-04-20T09:49:34;102372;;;19.42;57.04
70198;BME280;57582;-34.876;138.628;2023-04-20T09:52:37;102373;;;19.39;57.05
70198;BME280;57582;-34.876;138.628;2023-04-20T09:55:34;102371;;;19.41;56.93
70198;BME280;57582;-34.876;138.628;2023-04-20T09:58:34;102376;;;19.42;57.27
70198;BME280;57582;-34.876;138.628;2023-04-20T10:01:34;102373;;;19.53;57.65
70198;BME280;57582;-34.876;138.628;2023-04-20T10:04:35;102372;;;19.71;57.35
70198;BME280;57582;-34.876;138.628;2023-04-20T10:07:34;102373;;;19.91;56.53
70198;BME280;57582;-34.876;138.628;2023-04-20T10:10:50;102365;;;20.09;55.71
70198;BME280;57582;-34.876;138.628;2023-04-20T10:13:36;102374;;;20.27;55.56
70198;BME280;57582;-34.876;138.628;2023-04-20T10:16:35;102364;;;20.47;55.16
70198;BME280;57582;-34.876;138.628;2023-04-20T10:19:42;102367;;;20.65;54.11
70198;BME280;57582;-34.876;138.628;2023-04-20T10:22:34;102362;;;20.92;53.43
70198;BME280;57582;-34.876;138.628;2023-04-20T10:25:34;102370;;;21.16;52.70
70198;BME280;57582;-34.876;138.628;2023-04-20T10:28:37;102373;;;21.37;52.11
70198;BME280;57582;-34.876;138.628;2023-04-20T10:31:35;102368;;;21.50;51.38
70198;BME280;57582;-34.876;138.628;2023-04-20T10:34:35;102378;;;21.60;51.24
70198;BME280;57582;-34.876;138.628;2023-04-20T10:37:34;102375;;;21.65;50.88
70198;BME280;57582;-34.876;138.628;2023-04-20T10:40:36;102375;;;21.68;50.72
70198;BME280;57582;-34.876;138.628;2023-04-20T10:43:34;102373;;;21.67;50.65
70198;BME280;57582;-34.876;138.628;2023-04-20T10:46:34;102368;;;21.67;50.69
70198;BME280;57582;-34.876;138.628;2023-04-20T10:49:34;102366;;;21.61;50.81
70198;BME280;57582;-34.876;138.628;2023-04-20T10:52:36;102367;;;21.57;50.93
70198;BME280;57582;-34.876;138.628;2023-04-20T10:55:34;102370;;;21.52;51.22
70198;BME280;57582;-34.876;138.628;2023-04-20T10:58:34;102376;;;21.45;51.16
70198;BME280;57582;-34.876;138.628;2023-04-20T11:01:34;102374;;;21.41;51.35
70198;BME280;57582;-34.876;138.628;2023-04-20T11:04:35;102373;;;21.31;51.61
70198;BME280;57582;-34.876;138.628;2023-04-20T11:07:34;102380;;;21.22;51.97
70198;BME280;57582;-34.876;138.628;2023-04-20T11:10:37;102383;;;21.17;52.14
70198;BME280;57582;-34.876;138.628;2023-04-20T11:13:34;102382;;;21.10;52.42
70198;BME280;57582;-34.876;138.628;2023-04-20T11:16:36;102381;;;21.03;52.63
70198;BME280;57582;-34.876;138.628;2023-04-20T11:19:35;102393;;;20.94;53.17
70198;BME280;57582;-34.876;138.628;2023-04-20T11:22:34;102390;;;20.89;53.20
70198;BME280;57582;-34.876;138.628;2023-04-20T11:25:34;102394;;;20.84;53.50
70198;BME280;57582;-34.876;138.628;2023-04-20T11:28:35;102393;;;20.85;53.46
70198;BME280;57582;-34.876;138.628;2023-04-20T11:31:34;102390;;;20.81;53.48
70198;BME280;57582;-34.876;138.628;2023-04-20T11:34:35;102393;;;20.77;53.46
70198;BME280;57582;-34.876;138.628;2023-04-20T11:37:50;102396;;;20.71;53.42
70198;BME280;57582;-34.876;138.628;2023-04-20T11:40:35;102398;;;20.64;53.72
70198;BME280;57582;-34.876;138.628;2023-04-20T11:43:34;102395;;;20.59;53.61
70198;BME280;57582;-34.876;138.628;2023-04-20T11:46:34;102400;;;20.47;53.78
70198;BME280;57582;-34.876;138.628;2023-04-20T11:49:34;102394;;;20.38;54.19
70198;BME280;57582;-34.876;138.628;2023-04-20T11:52:35;102402;;;20.27;54.45
70198;BME280;57582;-34.876;138.628;2023-04-20T11:55:34;102406;;;20.18;54.73
70198;BME280;57582;-34.876;138.628;2023-04-20T11:58:34;102412;;;20.12;54.85
70198;BME280;57582;-34.876;138.628;2023-04-20T12:01:34;102413;;;20.05;55.25
70198;BME280;57582;-34.876;138.628;2023-04-20T12:04:35;102413;;;19.98;55.56
70198;BME280;57582;-34.876;138.628;2023-04-20T12:07:34;102409;;;19.93;55.34
70198;BME280;57582;-34.876;138.628;2023-04-20T12:10:34;102412;;;19.88;55.72
70198;BME280;57582;-34.876;138.628;2023-04-20T12:13:34;102419;;;19.82;55.77
70198;BME280;57582;-34.876;138.628;2023-04-20T12:16:35;102410;;;19.79;55.87
70198;BME280;57582;-34.876;138.628;2023-04-20T12:19:34;102412;;;19.74;56.17
70198;BME280;57582;-34.876;138.628;2023-04-20T12:22:34;102419;;;19.70;55.77
70198;BME280;57582;-34.876;138.628;2023-04-20T12:25:34;102408;;;19.64;55.67
70198;BME280;57582;-34.876;138.628;2023-04-20T12:28:36;102405;;;19.51;56.10
70198;BME280;57582;-34.876;138.628;2023-04-20T12:31:34;102399;;;19.40;56.73
70198;BME280;57582;-34.876;138.628;2023-04-20T12:34:34;102404;;;19.28;56.73
70198;BME280;57582;-34.876;138.628;2023-04-20T12:37:34;102401;;;19.10;57.43
70198;BME280;57582;-34.876;138.628;2023-04-20T12:40:35;102402;;;18.99;57.81
70198;BME280;57582;-34.876;138.628;2023-04-20T12:43:34;102399;;;18.94;58.03
70198;BME280;57582;-34.876;138.628;2023-04-20T12:46:34;102390;;;18.97;57.67
70198;BME280;57582;-34.876;138.628;2023-04-20T12:49:34;102393;;;18.89;57.12
70198;BME280;57582;-34.876;138.628;2023-04-20T12:52:35;102389;;;18.74;57.19
70198;BME280;57582;-34.876;138.628;2023-04-20T12:55:34;102394;;;18.66;57.61
70198;BME280;57582;-34.876;138.628;2023-04-20T12:58:34;102399;;;18.59;57.58
70198;BME280;57582;-34.876;138.628;2023-04-20T13:01:35;102403;;;18.43;57.97
70198;BME280;57582;-34.876;138.628;2023-04-20T13:04:35;102402;;;18.36;58.12
70198;BME280;57582;-34.876;138.628;2023-04-20T13:07:35;102394;;;18.27;57.92
70198;BME280;57582;-34.876;138.628;2023-04-20T13:10:35;102392;;;18.19;58.49
70198;BME280;57582;-34.876;138.628;2023-04-20T13:13:35;102399;;;18.09;58.12
70198;BME280;57582;-34.876;138.628;2023-04-20T13:16:35;102396;;;18.01;58.79
70198;BME280;57582;-34.876;138.628;2023-04-20T13:19:35;102392;;;17.97;59.15
70198;BME280;57582;-34.876;138.628;2023-04-20T13:22:35;102382;;;17.91;59.10
70198;BME280;57582;-34.876;138.628;2023-04-20T13:25:35;102387;;;17.86;58.96
70198;BME280;57582;-34.876;138.628;2023-04-20T13:28:35;102393;;;17.82;59.12
70198;BME280;57582;-34.876;138.628;2023-04-20T13:31:35;102394;;;17.78;58.97
70198;BME280;57582;-34.876;138.628;2023-04-20T13:34:35;102401;;;17.65;58.88
70198;BME280;57582;-34.876;138.628;2023-04-20T13:37:35;102400;;;17.61;59.70
70198;BME280;57582;-34.876;138.628;2023-04-20T13:40:35;102398;;;17.63;59.28
70198;BME280;57582;-34.876;138.628;2023-04-20T13:43:35;102397;;;17.59;58.85
70198;BME280;57582;-34.876;138.628;2023-04-20T13:46:35;102395;;;17.45;59.62
70198;BME280;57582;-34.876;138.628;2023-04-20T13:49:35;102398;;;17.37;60.31
70198;BME280;57582;-34.876;138.628;2023-04-20T13:52:35;102401;;;17.36;60.34
70198;BME280;57582;-34.876;138.628;2023-04-20T13:55:35;102389;;;17.29;60.97
70198;BME280;57582;-34.876;138.628;2023-04-20T13:58:35;102388;;;17.31;60.96
70198;BME280;57582;-34.876;138.628;2023-04-20T14:01:35;102392;;;17.34;60.21
70198;BME280;57582;-34.876;138.628;2023-04-20T14:04:35;102400;;;17.32;59.61
70198;BME280;57582;-34.876;138.628;2023-04-20T14:07:35;102385;;;17.21;60.16
70198;BME280;57582;-34.876;138.628;2023-04-20T14:10:35;102393;;;17.21;60.20
70198;BME280;57582;-34.876;138.628;2023-04-20T14:13:35;102378;;;17.12;60.75
70198;BME280;57582;-34.876;138.628;2023-04-20T14:16:43;102386;;;17.14;60.62
70198;BME280;57582;-34.876;138.628;2023-04-20T14:19:35;102390;;;17.14;60.65
70198;BME280;57582;-34.876;138.628;2023-04-20T14:22:35;102387;;;17.06;61.32
70198;BME280;57582;-34.876;138.628;2023-04-20T14:25:35;102385;;;17.08;62.09
70198;BME280;57582;-34.876;138.628;2023-04-20T14:28:35;102381;;;17.14;62.28
70198;BME280;57582;-34.876;138.628;2023-04-20T14:31:35;102376;;;17.11;62.15
70198;BME280;57582;-34.876;138.628;2023-04-20T14:34:35;102371;;;17.14;62.03
70198;BME280;57582;-34.876;138.628;2023-04-20T14:37:35;102370;;;17.12;61.32
70198;BME280;57582;-34.876;138.628;2023-04-20T14:40:35;102369;;;17.13;61.22
70198;BME280;57582;-34.876;138.628;2023-04-20T14:43:35;102367;;;17.12;60.66
70198;BME280;57582;-34.876;138.628;2023-04-20T14:46:35;102369;;;17.05;60.76
70198;BME280;57582;-34.876;138.628;2023-04-20T14:49:35;102370;;;17.01;60.58
70198;BME280;57582;-34.876;138.628;2023-04-20T14:52:35;102376;;;16.92;61.04
70198;BME280;57582;-34.876;138.628;2023-04-20T14:55:35;102372;;;16.86;61.11
70198;BME280;57582;-34.876;138.628;2023-04-20T14:58:35;102371;;;16.84;60.20
70198;BME280;57582;-34.876;138.628;2023-04-20T15:01:35;102365;;;16.73;61.19
70198;BME280;57582;-34.876;138.628;2023-04-20T15:04:35;102367;;;16.71;60.90
70198;BME280;57582;-34.876;138.628;2023-04-20T15:07:35;102363;;;16.70;61.12
70198;BME280;57582;-34.876;138.628;2023-04-20T15:10:35;102363;;;16.58;61.02
70198;BME280;57582;-34.876;138.628;2023-04-20T15:13:35;102363;;;16.53;61.63
70198;BME280;57582;-34.876;138.628;2023-04-20T15:16:35;102366;;;16.52;61.46
70198;BME280;57582;-34.876;138.628;2023-04-20T15:19:35;102369;;;16.47;61.23
70198;BME280;57582;-34.876;138.628;2023-04-20T15:22:35;102376;;;16.40;61.89
70198;BME280;57582;-34.876;138.628;2023-04-20T15:25:35;102379;;;16.31;62.04
70198;BME280;57582;-34.876;138.628;2023-04-20T15:28:35;102374;;;16.35;61.54
70198;BME280;57582;-34.876;138.628;2023-04-20T15:31:35;102375;;;16.33;61.07
70198;BME280;57582;-34.876;138.628;2023-04-20T15:34:35;102367;;;16.32;61.51
70198;BME280;57582;-34.876;138.628;2023-04-20T15:37:35;102376;;;16.32;61.84
70198;BME280;57582;-34.876;138.628;2023-04-20T15:40:36;102370;;;16.34;61.67